sensor_id;sensor_type;location;lat;lon;timestamp;P1;durP1;ratioP1;P2;durP2;ratioP2
42146;SDS011;27815;43.410;11.852;2024-02-15T00:03:32;7.82;;;4.38;;
42146;SDS011;27815;43.410;11.852;2024-02-15T00:07:37;6.78;;;4.38;;
42146;SDS011;27815;43.410;11.852;2024-02-15T00:11:41;7.95;;;4.10;;
42146;SDS011;27815;43.410;11.852;2024-02-15T00:15:46;7.85;;;4.38;;
42146;SDS011;27815;43.410;11.852;2024-02-15T00:20:10;7.10;;;4.13;;
42146;SDS011;27815;43.410;11.852;2024-02-15T00:24:15;5.88;;;3.60;;
42146;SDS011;27815;43.410;11.852;2024-02-15T00:28:18;7.15;;;3.70;;
42146;SDS011;27815;43.410;11.852;2024-02-15T00:32:25;9.18;;;4.00;;
42146;SDS011;27815;43.410;11.852;2024-02-15T00:36:31;6.63;;;3.63;;
42146;SDS011;27815;43.410;11.852;2024-02-15T00:40:37;6.07;;;3.78;;
42146;SDS011;27815;43.410;11.852;2024-02-15T00:44:43;7.65;;;3.50;;
42146;SDS011;27815;43.410;11.852;2024-02-15T00:48:51;8.40;;;4.40;;
42146;SDS011;27815;43.410;11.852;2024-02-15T00:52:55;6.47;;;3.80;;
42146;SDS011;27815;43.410;11.852;2024-02-15T00:57:01;7.55;;;4.30;;
42146;SDS011;27815;43.410;11.852;2024-02-15T01:01:04;7.22;;;4.35;;
42146;SDS011;27815;43.410;11.852;2024-02-15T01:05:10;9.40;;;4.90;;
42146;SDS011;27815;43.410;11.852;2024-02-15T01:09:14;9.02;;;5.90;;
42146;SDS011;27815;43.410;11.852;2024-02-15T01:13:17;8.27;;;4.55;;
42146;SDS011;27815;43.410;11.852;2024-02-15T01:17:22;9.27;;;5.55;;
42146;SDS011;27815;43.410;11.852;2024-02-15T01:21:26;11.07;;;5.68;;
42146;SDS011;27815;43.410;11.852;2024-02-15T01:25:34;7.40;;;4.80;;
42146;SDS011;27815;43.410;11.852;2024-02-15T01:33:44;11.77;;;5.38;;
42146;SDS011;27815;43.410;11.852;2024-02-15T01:37:48;8.73;;;5.47;;
42146;SDS011;27815;43.410;11.852;2024-02-15T01:41:52;10.25;;;5.50;;
42146;SDS011;27815;43.410;11.852;2024-02-15T01:45:58;9.45;;;5.05;;
42146;SDS011;27815;43.410;11.852;2024-02-15T01:50:15;9.35;;;5.75;;
42146;SDS011;27815;43.410;11.852;2024-02-15T01:54:25;8.30;;;4.95;;
42146;SDS011;27815;43.410;11.852;2024-02-15T01:58:29;7.93;;;4.85;;
42146;SDS011;27815;43.410;11.852;2024-02-15T02:02:34;8.00;;;4.03;;
42146;SDS011;27815;43.410;11.852;2024-02-15T02:06:44;7.55;;;4.93;;
42146;SDS011;27815;43.410;11.852;2024-02-15T02:10:48;8.88;;;5.07;;
42146;SDS011;27815;43.410;11.852;2024-02-15T02:14:58;10.85;;;5.72;;
42146;SDS011;27815;43.410;11.852;2024-02-15T02:19:02;8.27;;;4.78;;
42146;SDS011;27815;43.410;11.852;2024-02-15T02:23:20;7.82;;;4.53;;
42146;SDS011;27815;43.410;11.852;2024-02-15T02:27:29;7.50;;;4.63;;
42146;SDS011;27815;43.410;11.852;2024-02-15T02:31:39;7.10;;;4.40;;
42146;SDS011;27815;43.410;11.852;2024-02-15T02:35:47;6.10;;;3.35;;
42146;SDS011;27815;43.410;11.852;2024-02-15T02:39:53;5.32;;;3.22;;
42146;SDS011;27815;43.410;11.852;2024-02-15T02:43:56;8.93;;;4.97;;
42146;SDS011;27815;43.410;11.852;2024-02-15T02:48:03;10.75;;;5.28;;
42146;SDS011;27815;43.410;11.852;2024-02-15T02:52:09;7.00;;;4.77;;
42146;SDS011;27815;43.410;11.852;2024-02-15T02:56:15;6.20;;;3.75;;
42146;SDS011;27815;43.410;11.852;2024-02-15T03:00:19;6.70;;;3.58;;
42146;SDS011;27815;43.410;11.852;2024-02-15T03:04:25;6.07;;;3.60;;
42146;SDS011;27815;43.410;11.852;2024-02-15T03:08:29;6.53;;;3.65;;
42146;SDS011;27815;43.410;11.852;2024-02-15T03:12:39;7.45;;;4.60;;
42146;SDS011;27815;43.410;11.852;2024-02-15T03:20:49;7.05;;;3.50;;
42146;SDS011;27815;43.410;11.852;2024-02-15T03:24:55;7.05;;;4.30;;
42146;SDS011;27815;43.410;11.852;2024-02-15T03:29:01;4.90;;;3.07;;
42146;SDS011;27815;43.410;11.852;2024-02-15T03:33:13;6.22;;;3.63;;
42146;SDS011;27815;43.410;11.852;2024-02-15T03:37:25;6.32;;;3.65;;
42146;SDS011;27815;43.410;11.852;2024-02-15T03:45:35;7.90;;;4.57;;
42146;SDS011;27815;43.410;11.852;2024-02-15T03:49:46;6.13;;;3.88;;
42146;SDS011;27815;43.410;11.852;2024-02-15T03:53:50;7.53;;;4.13;;
42146;SDS011;27815;43.410;11.852;2024-02-15T03:57:59;7.18;;;4.43;;
42146;SDS011;27815;43.410;11.852;2024-02-15T04:02:07;6.57;;;4.07;;
42146;SDS011;27815;43.410;11.852;2024-02-15T04:06:17;7.95;;;4.30;;
42146;SDS011;27815;43.410;11.852;2024-02-15T04:10:24;7.47;;;3.85;;
42146;SDS011;27815;43.410;11.852;2024-02-15T04:14:37;8.35;;;5.15;;
42146;SDS011;27815;43.410;11.852;2024-02-15T04:18:41;7.40;;;4.65;;
42146;SDS011;27815;43.410;11.852;2024-02-15T04:22:48;7.32;;;4.50;;
42146;SDS011;27815;43.410;11.852;2024-02-15T04:26:57;10.50;;;5.45;;
42146;SDS011;27815;43.410;11.852;2024-02-15T04:31:06;9.68;;;5.55;;
42146;SDS011;27815;43.410;11.852;2024-02-15T04:35:14;9.75;;;4.60;;
42146;SDS011;27815;43.410;11.852;2024-02-15T04:39:22;7.68;;;4.13;;
42146;SDS011;27815;43.410;11.852;2024-02-15T04:43:33;8.77;;;4.65;;
42146;SDS011;27815;43.410;11.852;2024-02-15T04:47:51;9.10;;;5.13;;
42146;SDS011;27815;43.410;11.852;2024-02-15T04:51:59;9.57;;;4.93;;
42146;SDS011;27815;43.410;11.852;2024-02-15T04:56:06;8.02;;;5.05;;
42146;SDS011;27815;43.410;11.852;2024-02-15T05:00:16;10.20;;;5.70;;
42146;SDS011;27815;43.410;11.852;2024-02-15T05:04:24;9.45;;;5.90;;
42146;SDS011;27815;43.410;11.852;2024-02-15T05:08:27;10.48;;;5.32;;
42146;SDS011;27815;43.410;11.852;2024-02-15T05:12:34;14.82;;;9.13;;
42146;SDS011;27815;43.410;11.852;2024-02-15T05:16:42;14.90;;;7.25;;
42146;SDS011;27815;43.410;11.852;2024-02-15T05:21:09;12.00;;;8.13;;
42146;SDS011;27815;43.410;11.852;2024-02-15T05:26:24;8.13;;;4.65;;
42146;SDS011;27815;43.410;11.852;2024-02-15T05:55:57;6.20;;;3.70;;
42146;SDS011;27815;43.410;11.852;2024-02-15T06:01:19;10.95;;;6.15;;
42146;SDS011;27815;43.410;11.852;2024-02-15T06:06:07;10.07;;;5.57;;
42146;SDS011;27815;43.410;11.852;2024-02-15T06:10:20;8.75;;;4.55;;
42146;SDS011;27815;43.410;11.852;2024-02-15T06:14:28;7.53;;;3.65;;
42146;SDS011;27815;43.410;11.852;2024-02-15T06:22:39;7.88;;;3.72;;
42146;SDS011;27815;43.410;11.852;2024-02-15T06:28:15;8.80;;;4.82;;
42146;SDS011;27815;43.410;11.852;2024-02-15T06:33:56;8.88;;;5.78;;
42146;SDS011;27815;43.410;11.852;2024-02-15T06:38:20;9.68;;;4.57;;
42146;SDS011;27815;43.410;11.852;2024-02-15T06:42:51;15.13;;;7.95;;
42146;SDS011;27815;43.410;11.852;2024-02-15T06:46:57;48.47;;;26.05;;
42146;SDS011;27815;43.410;11.852;2024-02-15T06:51:00;24.90;;;15.15;;
42146;SDS011;27815;43.410;11.852;2024-02-15T06:55:03;44.20;;;25.30;;
42146;SDS011;27815;43.410;11.852;2024-02-15T06:59:09;34.53;;;20.63;;
42146;SDS011;27815;43.410;11.852;2024-02-15T07:03:12;13.23;;;6.90;;
42146;SDS011;27815;43.410;11.852;2024-02-15T07:07:15;24.27;;;15.18;;
42146;SDS011;27815;43.410;11.852;2024-02-15T07:11:19;19.20;;;12.50;;
42146;SDS011;27815;43.410;11.852;2024-02-15T07:15:26;36.80;;;20.45;;
42146;SDS011;27815;43.410;11.852;2024-02-15T07:19:29;30.35;;;17.52;;
42146;SDS011;27815;43.410;11.852;2024-02-15T07:23:36;25.35;;;17.13;;
42146;SDS011;27815;43.410;11.852;2024-02-15T07:27:40;22.63;;;14.63;;
42146;SDS011;27815;43.410;11.852;2024-02-15T07:31:43;21.77;;;14.35;;
42146;SDS011;27815;43.410;11.852;2024-02-15T07:35:46;25.08;;;14.43;;
42146;SDS011;27815;43.410;11.852;2024-02-15T07:39:49;24.63;;;14.50;;
42146;SDS011;27815;43.410;11.852;2024-02-15T07:43:52;23.55;;;15.55;;
42146;SDS011;27815;43.410;11.852;2024-02-15T07:48:00;25.17;;;16.83;;
42146;SDS011;27815;43.410;11.852;2024-02-15T07:52:03;25.15;;;16.60;;
42146;SDS011;27815;43.410;11.852;2024-02-15T07:56:07;24.77;;;16.80;;
42146;SDS011;27815;43.410;11.852;2024-02-15T08:00:10;31.15;;;18.52;;
42146;SDS011;27815;43.410;11.852;2024-02-15T08:04:14;29.35;;;19.05;;
42146;SDS011;27815;43.410;11.852;2024-02-15T08:08:22;30.80;;;19.17;;
42146;SDS011;27815;43.410;11.852;2024-02-15T08:12:25;33.35;;;21.50;;
42146;SDS011;27815;43.410;11.852;2024-02-15T08:16:28;40.22;;;24.58;;
42146;SDS011;27815;43.410;11.852;2024-02-15T08:20:31;40.58;;;26.02;;
42146;SDS011;27815;43.410;11.852;2024-02-15T08:24:36;29.23;;;20.95;;
42146;SDS011;27815;43.410;11.852;2024-02-15T08:28:42;21.38;;;14.88;;
42146;SDS011;27815;43.410;11.852;2024-02-15T08:32:46;20.23;;;14.32;;
42146;SDS011;27815;43.410;11.852;2024-02-15T08:36:50;21.00;;;12.60;;
42146;SDS011;27815;43.410;11.852;2024-02-15T08:40:54;18.42;;;12.55;;
42146;SDS011;27815;43.410;11.852;2024-02-15T08:44:57;14.93;;;11.43;;
42146;SDS011;27815;43.410;11.852;2024-02-15T08:49:02;19.92;;;13.80;;
42146;SDS011;27815;43.410;11.852;2024-02-15T08:53:05;19.40;;;13.23;;
42146;SDS011;27815;43.410;11.852;2024-02-15T08:57:13;18.98;;;13.30;;
42146;SDS011;27815;43.410;11.852;2024-02-15T09:01:19;20.20;;;13.60;;
42146;SDS011;27815;43.410;11.852;2024-02-15T09:05:28;16.52;;;12.27;;
42146;SDS011;27815;43.410;11.852;2024-02-15T09:09:34;15.90;;;11.98;;
42146;SDS011;27815;43.410;11.852;2024-02-15T09:13:48;16.95;;;12.18;;
42146;SDS011;27815;43.410;11.852;2024-02-15T09:17:56;15.77;;;12.27;;
42146;SDS011;27815;43.410;11.852;2024-02-15T09:22:01;18.83;;;11.52;;
42146;SDS011;27815;43.410;11.852;2024-02-15T09:26:06;17.65;;;12.18;;
42146;SDS011;27815;43.410;11.852;2024-02-15T09:30:12;17.23;;;12.67;;
42146;SDS011;27815;43.410;11.852;2024-02-15T09:34:16;15.52;;;10.90;;
42146;SDS011;27815;43.410;11.852;2024-02-15T09:38:22;26.40;;;16.47;;
42146;SDS011;27815;43.410;11.852;2024-02-15T09:42:27;49.60;;;28.00;;
42146;SDS011;27815;43.410;11.852;2024-02-15T09:46:33;49.92;;;29.50;;
42146;SDS011;27815;43.410;11.852;2024-02-15T09:50:39;34.60;;;20.73;;
42146;SDS011;27815;43.410;11.852;2024-02-15T09:54:45;23.00;;;15.15;;
42146;SDS011;27815;43.410;11.852;2024-02-15T09:58:51;18.95;;;12.98;;
42146;SDS011;27815;43.410;11.852;2024-02-15T10:02:55;19.42;;;12.13;;
42146;SDS011;27815;43.410;11.852;2024-02-15T10:06:59;25.73;;;17.52;;
42146;SDS011;27815;43.410;11.852;2024-02-15T10:11:09;25.20;;;15.35;;
42146;SDS011;27815;43.410;11.852;2024-02-15T10:15:27;27.98;;;17.02;;
42146;SDS011;27815;43.410;11.852;2024-02-15T10:19:40;21.92;;;16.10;;
42146;SDS011;27815;43.410;11.852;2024-02-15T10:23:59;22.38;;;16.27;;
42146;SDS011;27815;43.410;11.852;2024-02-15T10:28:11;15.48;;;10.90;;
42146;SDS011;27815;43.410;11.852;2024-02-15T10:32:18;15.27;;;10.98;;
42146;SDS011;27815;43.410;11.852;2024-02-15T10:36:23;15.50;;;10.80;;
42146;SDS011;27815;43.410;11.852;2024-02-15T10:40:29;13.45;;;9.52;;
42146;SDS011;27815;43.410;11.852;2024-02-15T10:44:34;13.57;;;8.50;;
42146;SDS011;27815;43.410;11.852;2024-02-15T10:48:38;13.05;;;7.65;;
42146;SDS011;27815;43.410;11.852;2024-02-15T10:57:22;11.95;;;7.00;;
42146;SDS011;27815;43.410;11.852;2024-02-15T11:01:30;12.23;;;7.00;;
42146;SDS011;27815;43.410;11.852;2024-02-15T11:05:36;10.98;;;6.25;;
42146;SDS011;27815;43.410;11.852;2024-02-15T11:09:44;9.48;;;6.15;;
42146;SDS011;27815;43.410;11.852;2024-02-15T11:13:49;7.95;;;5.10;;
42146;SDS011;27815;43.410;11.852;2024-02-15T11:17:52;7.45;;;4.63;;
42146;SDS011;27815;43.410;11.852;2024-02-15T11:26:53;6.85;;;4.82;;
42146;SDS011;27815;43.410;11.852;2024-02-15T11:30:50;9.88;;;6.18;;
42146;SDS011;27815;43.410;11.852;2024-02-15T11:35:02;8.35;;;5.40;;
42146;SDS011;27815;43.410;11.852;2024-02-15T11:43:47;10.88;;;6.82;;
42146;SDS011;27815;43.410;11.852;2024-02-15T11:47:54;10.13;;;6.28;;
42146;SDS011;27815;43.410;11.852;2024-02-15T11:52:08;9.02;;;5.15;;
42146;SDS011;27815;43.410;11.852;2024-02-15T11:56:13;8.98;;;4.78;;
42146;SDS011;27815;43.410;11.852;2024-02-15T12:00:24;7.20;;;4.87;;
42146;SDS011;27815;43.410;11.852;2024-02-15T12:04:51;7.28;;;4.65;;
42146;SDS011;27815;43.410;11.852;2024-02-15T12:09:18;8.15;;;4.93;;
42146;SDS011;27815;43.410;11.852;2024-02-15T12:13:41;5.57;;;3.85;;
42146;SDS011;27815;43.410;11.852;2024-02-15T12:18:14;5.28;;;3.28;;
42146;SDS011;27815;43.410;11.852;2024-02-15T12:22:42;5.43;;;3.67;;
42146;SDS011;27815;43.410;11.852;2024-02-15T12:26:59;5.75;;;3.70;;
42146;SDS011;27815;43.410;11.852;2024-02-15T12:31:13;7.72;;;3.63;;
42146;SDS011;27815;43.410;11.852;2024-02-15T12:59:11;7.28;;;3.80;;
42146;SDS011;27815;43.410;11.852;2024-02-15T13:03:47;6.88;;;3.20;;
42146;SDS011;27815;43.410;11.852;2024-02-15T13:09:18;4.38;;;2.83;;
42146;SDS011;27815;43.410;11.852;2024-02-15T13:13:37;4.25;;;2.58;;
42146;SDS011;27815;43.410;11.852;2024-02-15T13:18:02;3.67;;;2.40;;
42146;SDS011;27815;43.410;11.852;2024-02-15T13:29:55;5.53;;;2.60;;
42146;SDS011;27815;43.410;11.852;2024-02-15T13:35:42;4.80;;;2.53;;
42146;SDS011;27815;43.410;11.852;2024-02-15T13:40:17;3.92;;;2.10;;
42146;SDS011;27815;43.410;11.852;2024-02-15T13:44:56;4.15;;;2.10;;
42146;SDS011;27815;43.410;11.852;2024-02-15T13:49:43;4.90;;;2.42;;
42146;SDS011;27815;43.410;11.852;2024-02-15T13:53:59;3.78;;;2.20;;
42146;SDS011;27815;43.410;11.852;2024-02-15T13:58:02;3.90;;;2.40;;
42146;SDS011;27815;43.410;11.852;2024-02-15T14:02:06;4.63;;;2.53;;
42146;SDS011;27815;43.410;11.852;2024-02-15T14:06:09;5.93;;;2.70;;
42146;SDS011;27815;43.410;11.852;2024-02-15T14:10:13;5.07;;;2.15;;
42146;SDS011;27815;43.410;11.852;2024-02-15T14:14:16;4.75;;;2.33;;
42146;SDS011;27815;43.410;11.852;2024-02-15T14:18:19;3.85;;;2.13;;
42146;SDS011;27815;43.410;11.852;2024-02-15T14:22:23;4.43;;;2.58;;
42146;SDS011;27815;43.410;11.852;2024-02-15T14:26:33;4.65;;;2.55;;
42146;SDS011;27815;43.410;11.852;2024-02-15T14:30:39;4.20;;;2.40;;
42146;SDS011;27815;43.410;11.852;2024-02-15T14:35:01;5.15;;;2.78;;
42146;SDS011;27815;43.410;11.852;2024-02-15T14:39:05;4.63;;;2.35;;
42146;SDS011;27815;43.410;11.852;2024-02-15T14:43:08;5.22;;;2.83;;
42146;SDS011;27815;43.410;11.852;2024-02-15T14:47:20;5.05;;;2.95;;
42146;SDS011;27815;43.410;11.852;2024-02-15T14:51:24;5.35;;;2.88;;
42146;SDS011;27815;43.410;11.852;2024-02-15T14:55:28;4.82;;;2.63;;
42146;SDS011;27815;43.410;11.852;2024-02-15T14:59:33;4.20;;;2.45;;
42146;SDS011;27815;43.410;11.852;2024-02-15T15:03:37;5.18;;;2.40;;
42146;SDS011;27815;43.410;11.852;2024-02-15T15:07:44;5.90;;;3.10;;
42146;SDS011;27815;43.410;11.852;2024-02-15T15:18:49;4.78;;;2.47;;
42146;SDS011;27815;43.410;11.852;2024-02-15T17:14:10;5.45;;;3.03;;
